createdAt,value
2019-02-14T00:00:59.091Z,21.97
2019-02-14T00:03:29.760Z,20.47
2019-02-14T00:06:00.301Z,21.03
2019-02-14T00:08:30.900Z,22.80
2019-02-14T00:11:01.519Z,20.37
2019-02-14T00:13:32.017Z,23.13
2019-02-14T00:16:02.617Z,20.97
2019-02-14T00:18:33.111Z,21.63
2019-02-14T00:21:03.531Z,22.20
2019-02-14T00:23:34.016Z,21.13
2019-02-14T00:26:05.391Z,22.83
2019-02-14T00:28:35.819Z,23.43
2019-02-14T00:31:06.351Z,21.80
2019-02-14T00:33:37.231Z,22.07
2019-02-14T00:36:07.870Z,22.50
2019-02-14T00:38:38.352Z,21.00
2019-02-14T00:41:08.925Z,21.20
2019-02-14T00:43:39.601Z,21.07
2019-02-14T00:46:10.153Z,20.10
2019-02-14T00:48:40.621Z,21.60
2019-02-14T00:51:11.120Z,20.07
2019-02-14T00:53:41.581Z,19.77
2019-02-14T00:56:12.194Z,20.47
2019-02-14T00:58:42.643Z,20.10
2019-02-14T01:01:13.228Z,21.47
2019-02-14T01:03:43.714Z,21.53
2019-02-14T01:06:14.462Z,21.10
2019-02-14T01:08:45.042Z,21.73
2019-02-14T01:11:15.722Z,21.93
2019-02-14T01:13:46.338Z,21.17
2019-02-14T01:16:16.831Z,22.47
2019-02-14T01:18:47.391Z,23.10
2019-02-14T01:21:18.042Z,22.10
2019-02-14T01:23:48.391Z,21.60
2019-02-14T01:26:18.936Z,21.27
2019-02-14T01:28:49.480Z,22.43
2019-02-14T01:31:20.050Z,21.73
2019-02-14T01:33:50.513Z,21.37
2019-02-14T01:36:20.921Z,21.80
2019-02-14T01:38:51.629Z,22.23
2019-02-14T01:41:22.171Z,21.70
2019-02-14T01:43:52.551Z,22.90
2019-02-14T01:46:23.460Z,23.23
2019-02-14T01:48:54.471Z,23.23
2019-02-14T01:51:24.950Z,24.33
2019-02-14T01:53:55.395Z,23.40
2019-02-14T01:56:25.790Z,23.30
2019-02-14T01:58:56.121Z,23.77
2019-02-14T02:01:26.839Z,23.10
2019-02-14T02:03:57.261Z,23.70
2019-02-14T02:06:27.770Z,23.27
2019-02-14T02:08:58.710Z,22.90
2019-02-14T02:11:29.193Z,23.30
2019-02-14T02:14:00.509Z,23.37
2019-02-14T02:16:30.871Z,23.87
2019-02-14T02:19:01.271Z,24.57
2019-02-14T02:21:31.631Z,25.73
2019-02-14T02:24:02.119Z,25.30
2019-02-14T02:26:32.561Z,25.20
2019-02-14T02:29:02.991Z,25.40
2019-02-14T02:31:33.380Z,25.60
2019-02-14T02:34:03.749Z,24.97
2019-02-14T02:36:34.310Z,26.33
2019-02-14T02:39:05.970Z,24.00
2019-02-14T02:41:36.471Z,24.10
2019-02-14T02:44:08.933Z,24.00
2019-02-14T02:46:39.570Z,24.43
2019-02-14T02:49:10.013Z,26.30
2019-02-14T02:51:40.432Z,27.50
2019-02-14T02:54:10.980Z,28.03
2019-02-14T02:56:41.459Z,28.50
2019-02-14T02:59:11.830Z,27.63
2019-02-14T03:01:42.789Z,27.50
2019-02-14T03:04:13.340Z,31.10
2019-02-14T03:06:43.959Z,28.70
2019-02-14T03:09:14.460Z,27.33
2019-02-14T03:11:44.891Z,30.20
2019-02-14T03:14:15.441Z,29.83
2019-02-14T03:16:45.943Z,29.10
2019-02-14T03:19:16.281Z,29.83
2019-02-14T03:21:46.665Z,30.80
2019-02-14T03:24:17.222Z,30.17
2019-02-14T03:26:47.730Z,28.90
2019-02-14T03:29:18.085Z,29.07
2019-02-14T03:31:48.485Z,31.30
2019-02-14T03:34:19.087Z,30.07
2019-02-14T03:36:49.493Z,28.87
2019-02-14T03:39:19.960Z,29.67
2019-02-14T03:41:50.771Z,29.20
2019-02-14T03:44:21.170Z,30.23
2019-02-14T03:46:51.579Z,30.43
2019-02-14T03:49:22.080Z,30.83
2019-02-14T03:51:52.581Z,28.97
2019-02-14T03:54:23.041Z,30.37
2019-02-14T03:56:53.449Z,29.70
2019-02-14T03:59:23.850Z,30.10
2019-02-14T04:01:54.260Z,30.40
2019-02-14T04:04:24.640Z,30.90
2019-02-14T04:06:55.161Z,31.33
2019-02-14T04:09:25.706Z,34.77
2019-02-14T04:11:56.094Z,31.97
2019-02-14T04:14:26.459Z,31.83
2019-02-14T04:16:56.900Z,29.20
2019-02-14T04:19:27.451Z,28.83
2019-02-14T04:21:57.870Z,29.30
2019-02-14T04:24:28.311Z,29.70
2019-02-14T04:26:58.720Z,29.20
2019-02-14T04:29:29.131Z,28.23
2019-02-14T04:31:59.579Z,28.37
2019-02-14T04:34:29.910Z,26.93
2019-02-14T04:37:00.259Z,27.43
2019-02-14T04:39:30.640Z,25.63
2019-02-14T04:42:01.063Z,26.10
2019-02-14T04:44:31.474Z,27.30
2019-02-14T04:47:01.890Z,26.80
2019-02-14T04:49:32.290Z,30.27
2019-02-14T04:52:03.031Z,31.53
2019-02-14T04:54:33.849Z,31.70
2019-02-14T04:57:04.403Z,32.27
2019-02-14T04:59:34.763Z,34.20
2019-02-14T05:02:05.225Z,34.80
2019-02-14T05:04:35.692Z,36.03
2019-02-14T05:07:06.220Z,33.00
2019-02-14T05:09:36.640Z,35.10
2019-02-14T05:12:07.210Z,37.10
2019-02-14T05:14:37.742Z,36.20
2019-02-14T05:17:08.547Z,36.20
2019-02-14T05:19:39.037Z,33.83
2019-02-14T05:22:09.782Z,31.93
2019-02-14T05:24:40.292Z,34.90
2019-02-14T05:27:10.790Z,34.97
2019-02-14T05:29:41.371Z,34.00
2019-02-14T05:32:11.956Z,35.03
2019-02-14T05:34:42.419Z,37.30
2019-02-14T05:37:12.972Z,36.57
2019-02-14T05:39:43.675Z,39.83
2019-02-14T05:42:14.294Z,41.63
2019-02-14T05:44:44.899Z,40.67
2019-02-14T05:47:15.730Z,43.40
2019-02-14T05:49:46.521Z,42.90
2019-02-14T05:52:17.117Z,39.43
2019-02-14T05:54:47.591Z,39.73
2019-02-14T05:57:18.631Z,40.93
2019-02-14T05:59:49.250Z,39.93
2019-02-14T06:02:20.040Z,42.00
2019-02-14T06:04:50.682Z,44.50
2019-02-14T06:07:21.220Z,45.40
2019-02-14T06:09:51.771Z,42.67
2019-02-14T06:12:22.319Z,44.67
2019-02-14T06:14:52.956Z,41.53
2019-02-14T06:17:23.641Z,37.60
2019-02-14T06:19:54.157Z,40.80
2019-02-14T06:22:25.037Z,39.60
2019-02-14T06:24:55.855Z,42.17
2019-02-14T06:27:27.070Z,42.20
2019-02-14T06:29:57.807Z,39.37
2019-02-14T06:32:28.480Z,44.50
2019-02-14T06:34:58.982Z,43.93
2019-02-14T06:37:29.538Z,42.93
2019-02-14T06:40:00.290Z,39.70
2019-02-14T06:42:31.080Z,38.17
2019-02-14T06:45:01.879Z,42.70
2019-02-14T06:47:32.630Z,43.53
2019-02-14T06:50:03.320Z,44.73
2019-02-14T06:52:34.151Z,40.27
2019-02-14T06:55:04.885Z,42.00
2019-02-14T06:57:35.504Z,45.20
2019-02-14T07:00:07.055Z,42.63
2019-02-14T07:02:37.711Z,42.00
2019-02-14T07:05:09.501Z,37.30
2019-02-14T07:07:41.368Z,36.23
2019-02-14T07:10:12.368Z,35.97
2019-02-14T07:12:43.086Z,36.00
2019-02-14T07:15:14.034Z,36.07
2019-02-14T07:17:44.605Z,36.80
2019-02-14T07:20:16.225Z,34.23
2019-02-14T07:22:46.783Z,35.00
2019-02-14T07:25:17.371Z,36.13
2019-02-14T07:27:48.065Z,34.00
2019-02-14T07:30:20.771Z,35.90
2019-02-14T07:32:51.500Z,36.63
2019-02-14T07:35:22.336Z,36.70
2019-02-14T07:37:53.049Z,35.60
2019-02-14T07:40:23.860Z,36.77
2019-02-14T07:42:54.670Z,36.03
2019-02-14T07:45:25.430Z,34.90
2019-02-14T07:47:56.060Z,37.63
2019-02-14T07:50:26.719Z,35.30
2019-02-14T07:52:57.371Z,36.40
2019-02-14T07:55:28.320Z,34.10
2019-02-14T07:57:58.922Z,36.73
2019-02-14T08:00:29.723Z,34.80
2019-02-14T08:03:00.442Z,36.17
2019-02-14T08:05:31.085Z,36.27
2019-02-14T08:08:02.292Z,36.33
2019-02-14T08:10:34.961Z,33.37
2019-02-14T08:13:05.370Z,32.73
2019-02-14T08:15:36.011Z,31.37
2019-02-14T08:18:06.744Z,32.67
2019-02-14T08:20:37.235Z,30.87
2019-02-14T08:23:08.262Z,31.60
2019-02-14T08:25:38.851Z,35.20
2019-02-14T08:28:09.453Z,34.93
2019-02-14T08:30:40.044Z,28.80
2019-02-14T08:33:10.626Z,26.17
2019-02-14T08:35:41.152Z,26.83
2019-02-14T08:38:11.710Z,27.20
2019-02-14T08:40:42.303Z,25.37
2019-02-14T08:43:12.791Z,27.63
2019-02-14T08:45:43.296Z,25.27
2019-02-14T08:48:13.711Z,24.90
2019-02-14T08:50:44.344Z,25.67
2019-02-14T08:53:15.050Z,26.97
2019-02-14T08:55:45.680Z,27.13
2019-02-14T08:58:16.726Z,26.60
2019-02-14T09:00:47.489Z,30.47
2019-02-14T09:03:17.966Z,25.27
2019-02-14T09:05:49.087Z,26.20
2019-02-14T09:08:19.463Z,24.90
2019-02-14T09:10:50.078Z,24.53
2019-02-14T09:13:20.712Z,23.80
2019-02-14T09:15:51.301Z,26.73
2019-02-14T09:18:21.862Z,27.00
2019-02-14T09:20:52.459Z,30.90
2019-02-14T09:23:23.083Z,36.00
2019-02-14T09:25:53.660Z,35.37
2019-02-14T09:28:24.205Z,30.90
2019-02-14T09:30:54.891Z,27.60
2019-02-14T09:33:25.341Z,29.70
2019-02-14T09:35:55.854Z,25.80
2019-02-14T09:38:26.559Z,31.17
2019-02-14T09:40:57.001Z,32.53
2019-02-14T09:43:29.761Z,32.50
2019-02-14T09:45:59.705Z,39.10
2019-02-14T09:48:30.200Z,35.40
2019-02-14T09:51:00.691Z,29.77
2019-02-14T09:53:31.156Z,26.37
2019-02-14T09:56:01.674Z,28.43
2019-02-14T09:58:32.309Z,24.63
2019-02-14T10:01:02.931Z,22.03
2019-02-14T10:03:33.330Z,22.90
2019-02-14T10:06:03.940Z,21.00
2019-02-14T10:08:34.320Z,24.60
2019-02-14T10:11:04.841Z,22.83
2019-02-14T10:13:35.460Z,23.87
2019-02-14T10:16:06.054Z,21.10
2019-02-14T10:18:36.347Z,20.90
2019-02-14T10:21:07.311Z,20.33
2019-02-14T10:23:38.286Z,20.90
2019-02-14T10:26:08.870Z,21.00
2019-02-14T10:28:39.260Z,21.63
2019-02-14T10:31:09.792Z,22.57
2019-02-14T10:33:40.343Z,20.67
2019-02-14T10:36:10.826Z,22.17
2019-02-14T10:38:41.359Z,21.77
2019-02-14T10:41:11.686Z,21.83
2019-02-14T10:43:48.657Z,22.93
2019-02-14T10:46:14.429Z,23.70
2019-02-14T10:48:45.430Z,23.03
2019-02-14T10:51:15.985Z,23.70
2019-02-14T10:53:46.610Z,23.03
2019-02-14T10:56:17.245Z,24.70
2019-02-14T10:58:47.916Z,23.10
2019-02-14T11:01:18.592Z,24.70
2019-02-14T11:03:49.288Z,23.13
2019-02-14T11:06:19.870Z,25.17
2019-02-14T11:08:50.371Z,24.27
2019-02-14T11:11:20.944Z,24.17
2019-02-14T11:13:51.495Z,23.40
2019-02-14T11:16:22.155Z,23.60
2019-02-14T11:18:52.779Z,22.63
2019-02-14T11:21:23.487Z,24.87
2019-02-14T11:23:53.970Z,24.43
2019-02-14T11:26:24.910Z,23.23
2019-02-14T11:28:55.491Z,23.40
2019-02-14T11:31:26.010Z,21.87
2019-02-14T11:33:56.480Z,21.20
2019-02-14T11:36:27.030Z,23.70
2019-02-14T11:38:57.561Z,21.60
2019-02-14T11:41:28.010Z,20.50
2019-02-14T11:43:58.778Z,22.17
2019-02-14T11:46:29.217Z,20.33
2019-02-14T11:48:59.649Z,21.57
2019-02-14T11:51:30.221Z,19.67
2019-02-14T11:54:00.713Z,19.80
2019-02-14T11:56:31.226Z,22.60
2019-02-14T11:59:01.955Z,21.83
2019-02-14T12:01:32.408Z,23.70
2019-02-14T12:04:02.956Z,19.90
2019-02-14T12:06:33.431Z,20.93
2019-02-14T12:09:05.289Z,19.90
2019-02-14T12:11:35.800Z,19.90
2019-02-14T12:14:06.747Z,21.70
2019-02-14T12:16:37.221Z,22.17
2019-02-14T12:19:07.611Z,22.43
2019-02-14T12:21:38.161Z,19.20
2019-02-14T12:24:08.850Z,20.13
2019-02-14T12:26:39.360Z,20.63
2019-02-14T12:29:09.826Z,17.37
2019-02-14T12:31:40.790Z,17.20
2019-02-14T12:34:11.370Z,15.30
2019-02-14T12:36:41.950Z,16.47
2019-02-14T12:39:12.570Z,16.43
2019-02-14T12:41:43.070Z,18.30
2019-02-14T12:44:14.090Z,17.97
2019-02-14T12:46:45.807Z,18.23
2019-02-14T12:49:16.425Z,16.13
2019-02-14T12:51:46.943Z,18.73
2019-02-14T12:54:17.476Z,19.30
2019-02-14T12:56:48.049Z,19.53
2019-02-14T12:59:18.983Z,18.83
2019-02-14T13:01:49.873Z,19.43
2019-02-14T13:04:20.470Z,20.47
2019-02-14T13:06:51.100Z,22.10
2019-02-14T13:09:21.714Z,21.80
2019-02-14T13:11:52.603Z,20.37
2019-02-14T13:14:23.082Z,19.47
2019-02-14T13:16:53.701Z,18.87
2019-02-14T13:19:24.317Z,19.93
2019-02-14T13:21:54.991Z,17.47
2019-02-14T13:24:25.558Z,16.97
2019-02-14T13:26:56.141Z,18.60
2019-02-14T13:29:26.693Z,17.60
2019-02-14T13:31:57.370Z,16.77
2019-02-14T13:34:27.904Z,17.63
2019-02-14T13:37:01.522Z,16.80
2019-02-14T13:39:32.651Z,17.60
2019-02-14T13:42:02.812Z,16.27
2019-02-14T13:44:33.178Z,15.10
2019-02-14T13:47:03.681Z,14.73
2019-02-14T13:49:34.221Z,15.57
2019-02-14T13:52:04.834Z,16.23
2019-02-14T13:54:35.303Z,14.17
2019-02-14T13:57:05.861Z,15.23
2019-02-14T13:59:36.344Z,12.87
2019-02-14T14:02:06.852Z,13.57
2019-02-14T14:04:37.626Z,13.80
2019-02-14T14:07:08.043Z,13.50
2019-02-14T14:09:39.079Z,14.23
2019-02-14T14:12:09.578Z,13.97
2019-02-14T14:14:40.045Z,13.67
2019-02-14T14:17:10.434Z,14.97
2019-02-14T14:19:40.781Z,14.00
2019-02-14T14:22:12.943Z,15.07
2019-02-14T14:24:43.391Z,16.73
2019-02-14T14:27:13.839Z,15.27
2019-02-14T14:29:44.214Z,15.80
2019-02-14T14:32:14.872Z,16.87
2019-02-14T14:34:45.505Z,16.07
2019-02-14T14:37:16.104Z,15.53
2019-02-14T14:39:48.032Z,15.93
2019-02-14T14:42:37.728Z,16.47
2019-02-14T14:45:10.725Z,16.03
2019-02-14T14:47:41.483Z,22.00
2019-02-14T14:50:12.169Z,17.07
2019-02-14T14:52:45.689Z,17.07
2019-02-14T14:55:16.252Z,18.23
2019-02-14T14:57:49.016Z,15.67
2019-02-14T15:00:23.490Z,19.63
2019-02-14T15:02:54.063Z,21.70
2019-02-14T15:05:24.704Z,21.90
2019-02-14T15:07:55.239Z,18.60
2019-02-14T15:10:28.617Z,31.83
2019-02-14T15:13:00.679Z,69.93
2019-02-14T15:15:31.301Z,53.33
2019-02-14T15:18:04.303Z,30.27
2019-02-14T15:20:34.986Z,39.87
2019-02-14T15:23:05.478Z,25.03
2019-02-14T15:25:37.366Z,25.87
2019-02-14T15:28:08.015Z,21.13
2019-02-14T15:30:41.321Z,27.50
2019-02-14T15:33:18.481Z,22.67
2019-02-14T15:35:49.162Z,23.30
2019-02-14T15:38:22.031Z,23.90
2019-02-14T15:40:59.860Z,24.23
2019-02-14T15:43:35.992Z,23.30
2019-02-14T15:46:10.082Z,22.17
2019-02-14T15:48:43.022Z,23.20
2019-02-14T15:51:13.559Z,24.77
2019-02-14T15:53:46.427Z,26.60
2019-02-14T15:56:18.254Z,26.03
2019-02-14T15:58:55.341Z,29.77
2019-02-14T16:01:27.648Z,28.97
2019-02-14T16:04:02.509Z,28.87
2019-02-14T16:06:33.647Z,30.10
2019-02-14T16:09:05.817Z,33.47
2019-02-14T16:11:38.635Z,31.90
2019-02-14T16:14:08.593Z,34.10
2019-02-14T16:16:47.336Z,37.03
2019-02-14T16:19:25.170Z,34.60
2019-02-14T16:22:03.856Z,34.00
2019-02-14T16:24:36.267Z,35.73
2019-02-14T16:27:08.214Z,33.67
2019-02-14T16:29:46.840Z,33.20
2019-02-14T16:32:21.171Z,32.63
2019-02-14T16:34:52.760Z,34.73
2019-02-14T16:37:28.006Z,32.70
2019-02-14T16:39:58.725Z,34.37
2019-02-14T16:42:34.707Z,39.57
2019-02-14T16:45:11.067Z,45.93
2019-02-14T16:47:42.700Z,51.73
2019-02-14T16:50:13.598Z,53.07
2019-02-14T16:52:44.187Z,53.87
2019-02-14T16:55:21.570Z,53.37
2019-02-14T16:57:52.587Z,51.07
2019-02-14T17:00:24.473Z,54.13
2019-02-14T17:02:59.306Z,53.40
2019-02-14T17:05:31.960Z,50.33
2019-02-14T17:08:09.072Z,49.70
2019-02-14T17:10:41.036Z,61.10
2019-02-14T17:13:14.770Z,51.97
2019-02-14T17:15:51.042Z,53.77
2019-02-14T17:18:25.636Z,42.33
2019-02-14T17:20:58.762Z,41.83
2019-02-14T17:23:32.582Z,39.43
2019-02-14T17:26:03.235Z,38.93
2019-02-14T17:28:39.808Z,37.07
2019-02-14T17:31:10.746Z,36.60
2019-02-14T17:33:43.780Z,35.80
2019-02-14T17:36:14.400Z,48.63
2019-02-14T17:38:47.339Z,51.97
2019-02-14T17:41:21.452Z,65.33
2019-02-14T17:43:51.991Z,74.63
2019-02-14T17:46:26.691Z,73.43
2019-02-14T17:49:03.871Z,63.27
2019-02-14T17:51:35.410Z,54.27
2019-02-14T17:54:09.332Z,51.97
2019-02-14T17:56:40.031Z,46.23
2019-02-14T17:59:16.011Z,47.37
2019-02-14T18:01:47.652Z,39.90
2019-02-14T18:04:19.927Z,44.73
2019-02-14T18:06:58.237Z,47.77
2019-02-14T18:09:31.918Z,48.23
2019-02-14T18:12:07.866Z,48.20
2019-02-14T18:14:42.403Z,46.40
2019-02-14T18:17:16.551Z,50.93
2019-02-14T18:19:51.757Z,49.73
2019-02-14T18:22:22.836Z,49.23
2019-02-14T18:24:55.580Z,53.90
2019-02-14T18:27:29.982Z,53.83
2019-02-14T18:30:02.007Z,51.17
2019-02-14T18:32:32.472Z,50.70
2019-02-14T18:35:07.365Z,48.70
2019-02-14T18:37:39.562Z,40.87
2019-02-14T18:40:18.727Z,35.37
2019-02-14T18:42:50.462Z,31.00
2019-02-14T18:45:26.686Z,27.03
2019-02-14T18:47:58.355Z,27.07
2019-02-14T18:50:30.088Z,29.47
2019-02-14T18:53:03.154Z,29.83
2019-02-14T18:55:34.213Z,29.47
2019-02-14T18:58:06.760Z,25.17
2019-02-14T19:00:41.573Z,24.63
2019-02-14T19:03:15.721Z,23.13
2019-02-14T19:05:47.735Z,22.10
2019-02-14T19:08:18.404Z,19.17
2019-02-14T19:10:48.951Z,17.83
2019-02-14T19:13:22.766Z,17.47
2019-02-14T19:16:02.494Z,16.87
2019-02-14T19:18:37.729Z,15.67
2019-02-14T19:21:10.483Z,16.13
2019-02-14T19:23:46.124Z,17.07
2019-02-14T19:26:20.467Z,19.67
2019-02-14T19:28:54.570Z,21.43
2019-02-14T19:31:32.157Z,24.03
2019-02-14T19:34:08.173Z,25.93
2019-02-14T19:36:38.756Z,26.63
2019-02-14T19:39:14.076Z,24.73
2019-02-14T19:41:49.033Z,25.23
2019-02-14T19:44:20.869Z,24.37
2019-02-14T19:46:56.973Z,25.07
2019-02-14T19:49:27.964Z,20.77
2019-02-14T19:52:04.780Z,19.37
2019-02-14T19:54:38.364Z,16.83
2019-02-14T19:57:14.922Z,16.30
2019-02-14T19:59:46.693Z,16.93
2019-02-14T20:02:21.836Z,16.63
2019-02-14T20:04:52.592Z,17.67
2019-02-14T20:07:34.667Z,17.47
2019-02-14T20:10:09.188Z,17.77
2019-02-14T20:12:53.998Z,18.67
2019-02-14T20:15:36.431Z,20.00
2019-02-14T20:18:03.961Z,21.87
2019-02-14T20:20:36.667Z,22.40
2019-02-14T20:23:12.973Z,23.03
2019-02-14T20:25:45.967Z,20.43
2019-02-14T20:28:20.352Z,20.00
2019-02-14T20:30:53.311Z,19.87
2019-02-14T20:33:25.323Z,24.23
2019-02-14T20:36:00.689Z,26.07
2019-02-14T20:38:31.735Z,24.90
2019-02-14T20:41:07.584Z,25.80
2019-02-14T20:43:39.403Z,21.33
2019-02-14T20:46:22.481Z,22.57
2019-02-14T20:48:54.215Z,22.03
2019-02-14T20:51:38.257Z,17.27
2019-02-14T20:54:13.639Z,15.97
2019-02-14T20:56:48.625Z,14.60
2019-02-14T20:59:23.900Z,14.47
2019-02-14T21:01:56.888Z,15.10
2019-02-14T21:04:43.662Z,15.23
2019-02-14T21:07:15.404Z,16.70
2019-02-14T21:09:46.291Z,16.90
2019-02-14T21:12:18.111Z,15.37
2019-02-14T21:14:50.710Z,16.77
2019-02-14T21:17:27.838Z,19.00
2019-02-14T21:19:58.551Z,20.70
2019-02-14T21:22:34.106Z,22.17
2019-02-14T21:25:06.133Z,24.83
2019-02-14T21:27:41.365Z,21.67
2019-02-14T21:30:16.657Z,20.13
2019-02-14T21:32:47.577Z,18.73
2019-02-14T21:35:20.562Z,20.87
2019-02-14T21:37:58.400Z,22.33
2019-02-14T21:40:29.601Z,27.00
2019-02-14T21:43:01.831Z,26.87
2019-02-14T21:45:34.367Z,25.07
2019-02-14T21:48:05.853Z,27.33
2019-02-14T21:50:42.211Z,28.70
2019-02-14T21:53:12.994Z,28.50
2019-02-14T21:55:44.726Z,29.53
2019-02-14T21:58:15.571Z,29.70
2019-02-14T22:00:46.430Z,29.17
2019-02-14T22:03:17.639Z,31.10
2019-02-14T22:05:50.233Z,31.17
2019-02-14T22:08:22.693Z,33.20
2019-02-14T22:10:54.883Z,34.50
2019-02-14T22:13:28.981Z,43.87
2019-02-14T22:16:04.822Z,44.00
2019-02-14T22:18:42.014Z,41.77
2019-02-14T22:21:18.214Z,38.10
2019-02-14T22:23:56.762Z,33.23
2019-02-14T22:26:34.432Z,28.60
2019-02-14T22:29:10.508Z,27.27
2019-02-14T22:31:46.893Z,25.80
2019-02-14T22:34:22.880Z,32.33
2019-02-14T22:37:00.386Z,39.30
2019-02-14T22:39:36.621Z,40.60
2019-02-14T22:42:14.772Z,35.87
2019-02-14T22:44:50.953Z,30.93
2019-02-14T22:47:26.977Z,31.37
2019-02-14T22:50:03.270Z,33.77
2019-02-14T22:52:40.026Z,33.63
2019-02-14T22:55:17.372Z,33.40
2019-02-14T22:57:53.706Z,32.87
2019-02-14T23:00:49.441Z,36.70
2019-02-14T23:03:24.717Z,38.70
2019-02-14T23:05:59.856Z,39.40
2019-02-14T23:08:35.447Z,48.30
2019-02-14T23:11:10.711Z,53.97
2019-02-14T23:13:46.388Z,54.93
2019-02-14T23:16:20.965Z,48.23
2019-02-14T23:18:56.176Z,47.93
2019-02-14T23:21:30.797Z,52.33
2019-02-14T23:24:05.900Z,54.80
2019-02-14T23:26:36.793Z,49.23
2019-02-14T23:29:07.173Z,48.53
2019-02-14T23:31:37.649Z,52.70
2019-02-14T23:34:08.392Z,48.60
2019-02-14T23:36:39.019Z,47.13
2019-02-14T23:39:09.670Z,46.07
2019-02-14T23:41:40.180Z,46.77
2019-02-14T23:44:10.661Z,46.57
2019-02-14T23:46:41.040Z,46.73
2019-02-14T23:49:11.532Z,45.93
2019-02-14T23:51:42.060Z,45.77
2019-02-14T23:54:12.512Z,45.27
2019-02-14T23:56:42.831Z,43.73
2019-02-14T23:59:13.390Z,47.13
